sensor_id;sensor_type;location;lat;lon;timestamp;P1;durP1;ratioP1;P2;durP2;ratioP2
73452;SDS011;61687;56.232;43.854;2022-07-23T00:00:56;23.37;;;14.47;;
73452;SDS011;61687;56.232;43.854;2022-07-23T00:03:22;31.90;;;15.90;;
73452;SDS011;61687;56.232;43.854;2022-07-23T00:05:48;27.55;;;16.33;;
73452;SDS011;61687;56.232;43.854;2022-07-23T00:08:14;29.15;;;16.05;;
73452;SDS011;61687;56.232;43.854;2022-07-23T00:10:40;26.43;;;15.40;;
73452;SDS011;61687;56.232;43.854;2022-07-23T00:13:07;27.00;;;14.85;;
73452;SDS011;61687;56.232;43.854;2022-07-23T00:15:33;24.20;;;13.90;;
73452;SDS011;61687;56.232;43.854;2022-07-23T00:17:59;27.50;;;14.93;;
73452;SDS011;61687;56.232;43.854;2022-07-23T00:20:25;35.08;;;16.73;;
73452;SDS011;61687;56.232;43.854;2022-07-23T00:22:52;31.57;;;15.93;;
73452;SDS011;61687;56.232;43.854;2022-07-23T00:25:20;27.35;;;15.48;;
73452;SDS011;61687;56.232;43.854;2022-07-23T00:27:48;29.77;;;15.95;;
73452;SDS011;61687;56.232;43.854;2022-07-23T00:30:14;27.35;;;15.40;;
73452;SDS011;61687;56.232;43.854;2022-07-23T00:32:47;33.50;;;14.67;;
73452;SDS011;61687;56.232;43.854;2022-07-23T00:35:15;29.08;;;15.52;;
73452;SDS011;61687;56.232;43.854;2022-07-23T00:37:42;31.98;;;15.07;;
73452;SDS011;61687;56.232;43.854;2022-07-23T00:40:08;30.02;;;15.32;;
73452;SDS011;61687;56.232;43.854;2022-07-23T00:42:36;24.85;;;14.52;;
73452;SDS011;61687;56.232;43.854;2022-07-23T00:45:02;23.87;;;14.50;;
73452;SDS011;61687;56.232;43.854;2022-07-23T00:47:29;27.63;;;14.70;;
73452;SDS011;61687;56.232;43.854;2022-07-23T00:49:55;25.85;;;15.50;;
73452;SDS011;61687;56.232;43.854;2022-07-23T00:52:21;28.30;;;15.70;;
73452;SDS011;61687;56.232;43.854;2022-07-23T00:54:48;28.65;;;15.70;;
73452;SDS011;61687;56.232;43.854;2022-07-23T00:57:14;29.80;;;15.63;;
73452;SDS011;61687;56.232;43.854;2022-07-23T00:59:40;26.60;;;15.73;;
73452;SDS011;61687;56.232;43.854;2022-07-23T01:02:06;27.65;;;15.20;;
73452;SDS011;61687;56.232;43.854;2022-07-23T01:04:32;25.92;;;15.32;;
73452;SDS011;61687;56.232;43.854;2022-07-23T01:06:58;24.27;;;15.07;;
73452;SDS011;61687;56.232;43.854;2022-07-23T01:09:25;29.00;;;15.23;;
73452;SDS011;61687;56.232;43.854;2022-07-23T01:11:52;29.02;;;15.35;;
73452;SDS011;61687;56.232;43.854;2022-07-23T01:14:20;26.15;;;15.07;;
73452;SDS011;61687;56.232;43.854;2022-07-23T01:16:47;31.80;;;16.25;;
73452;SDS011;61687;56.232;43.854;2022-07-23T01:19:15;27.95;;;15.10;;
73452;SDS011;61687;56.232;43.854;2022-07-23T01:21:43;26.17;;;15.27;;
73452;SDS011;61687;56.232;43.854;2022-07-23T01:24:15;26.58;;;15.43;;
73452;SDS011;61687;56.232;43.854;2022-07-23T01:26:52;27.25;;;14.85;;
73452;SDS011;61687;56.232;43.854;2022-07-23T01:29:19;26.33;;;14.85;;
73452;SDS011;61687;56.232;43.854;2022-07-23T01:31:47;26.95;;;14.70;;
73452;SDS011;61687;56.232;43.854;2022-07-23T01:34:14;27.37;;;14.90;;
73452;SDS011;61687;56.232;43.854;2022-07-23T01:36:40;28.20;;;15.73;;
73452;SDS011;61687;56.232;43.854;2022-07-23T01:39:08;27.48;;;16.02;;
73452;SDS011;61687;56.232;43.854;2022-07-23T01:41:34;25.90;;;15.90;;
73452;SDS011;61687;56.232;43.854;2022-07-23T01:44:00;29.03;;;15.27;;
73452;SDS011;61687;56.232;43.854;2022-07-23T01:46:26;28.30;;;14.65;;
73452;SDS011;61687;56.232;43.854;2022-07-23T01:48:52;28.38;;;15.07;;
73452;SDS011;61687;56.232;43.854;2022-07-23T01:51:37;28.27;;;14.43;;
73452;SDS011;61687;56.232;43.854;2022-07-23T01:54:22;23.73;;;15.10;;
73452;SDS011;61687;56.232;43.854;2022-07-23T01:56:48;29.70;;;14.80;;
73452;SDS011;61687;56.232;43.854;2022-07-23T01:59:15;27.38;;;15.30;;
73452;SDS011;61687;56.232;43.854;2022-07-23T02:01:40;27.42;;;14.90;;
73452;SDS011;61687;56.232;43.854;2022-07-23T02:04:07;26.38;;;14.85;;
73452;SDS011;61687;56.232;43.854;2022-07-23T02:06:33;26.87;;;14.60;;
73452;SDS011;61687;56.232;43.854;2022-07-23T02:08:59;27.60;;;15.80;;
73452;SDS011;61687;56.232;43.854;2022-07-23T02:11:25;25.70;;;13.75;;
73452;SDS011;61687;56.232;43.854;2022-07-23T02:13:53;23.13;;;15.10;;
73452;SDS011;61687;56.232;43.854;2022-07-23T02:16:20;22.87;;;14.40;;
73452;SDS011;61687;56.232;43.854;2022-07-23T02:18:46;26.58;;;14.68;;
73452;SDS011;61687;56.232;43.854;2022-07-23T02:21:12;36.25;;;16.58;;
73452;SDS011;61687;56.232;43.854;2022-07-23T02:23:38;28.42;;;14.50;;
73452;SDS011;61687;56.232;43.854;2022-07-23T02:26:04;28.95;;;15.18;;
73452;SDS011;61687;56.232;43.854;2022-07-23T02:28:30;32.07;;;15.97;;
73452;SDS011;61687;56.232;43.854;2022-07-23T02:30:56;27.73;;;16.30;;
73452;SDS011;61687;56.232;43.854;2022-07-23T02:33:22;27.35;;;14.90;;
73452;SDS011;61687;56.232;43.854;2022-07-23T02:35:49;34.70;;;19.70;;
73452;SDS011;61687;56.232;43.854;2022-07-23T02:38:17;40.63;;;20.17;;
73452;SDS011;61687;56.232;43.854;2022-07-23T02:40:44;33.15;;;19.65;;
73452;SDS011;61687;56.232;43.854;2022-07-23T02:43:10;33.63;;;19.10;;
73452;SDS011;61687;56.232;43.854;2022-07-23T02:45:37;31.20;;;17.58;;
73452;SDS011;61687;56.232;43.854;2022-07-23T02:48:03;28.97;;;18.97;;
73452;SDS011;61687;56.232;43.854;2022-07-23T02:50:29;28.85;;;18.27;;
73452;SDS011;61687;56.232;43.854;2022-07-23T02:52:57;33.88;;;19.10;;
73452;SDS011;61687;56.232;43.854;2022-07-23T02:55:24;33.53;;;19.60;;
73452;SDS011;61687;56.232;43.854;2022-07-23T02:57:51;30.50;;;18.15;;
73452;SDS011;61687;56.232;43.854;2022-07-23T03:00:17;28.80;;;18.07;;
73452;SDS011;61687;56.232;43.854;2022-07-23T03:02:43;34.55;;;17.95;;
73452;SDS011;61687;56.232;43.854;2022-07-23T03:05:09;30.30;;;17.90;;
73452;SDS011;61687;56.232;43.854;2022-07-23T03:07:35;35.53;;;18.63;;
73452;SDS011;61687;56.232;43.854;2022-07-23T03:10:03;28.65;;;18.67;;
73452;SDS011;61687;56.232;43.854;2022-07-23T03:12:29;27.57;;;18.37;;
73452;SDS011;61687;56.232;43.854;2022-07-23T03:14:55;33.53;;;19.70;;
73452;SDS011;61687;56.232;43.854;2022-07-23T03:17:21;29.80;;;18.52;;
73452;SDS011;61687;56.232;43.854;2022-07-23T03:19:47;31.88;;;18.77;;
73452;SDS011;61687;56.232;43.854;2022-07-23T03:22:13;28.03;;;17.37;;
73452;SDS011;61687;56.232;43.854;2022-07-23T03:24:39;26.88;;;17.33;;
73452;SDS011;61687;56.232;43.854;2022-07-23T03:27:27;30.98;;;18.63;;
73452;SDS011;61687;56.232;43.854;2022-07-23T03:29:55;30.23;;;17.52;;
73452;SDS011;61687;56.232;43.854;2022-07-23T03:32:24;28.05;;;18.02;;
73452;SDS011;61687;56.232;43.854;2022-07-23T03:34:51;27.23;;;17.57;;
73452;SDS011;61687;56.232;43.854;2022-07-23T03:37:17;24.83;;;17.17;;
73452;SDS011;61687;56.232;43.854;2022-07-23T03:39:45;27.20;;;17.02;;
73452;SDS011;61687;56.232;43.854;2022-07-23T03:42:11;28.30;;;17.15;;
73452;SDS011;61687;56.232;43.854;2022-07-23T03:44:37;30.02;;;16.65;;
73452;SDS011;61687;56.232;43.854;2022-07-23T03:47:04;27.47;;;16.23;;
73452;SDS011;61687;56.232;43.854;2022-07-23T03:49:31;26.10;;;17.70;;
73452;SDS011;61687;56.232;43.854;2022-07-23T03:51:58;25.83;;;16.40;;
73452;SDS011;61687;56.232;43.854;2022-07-23T03:54:24;24.33;;;16.58;;
73452;SDS011;61687;56.232;43.854;2022-07-23T03:56:50;28.83;;;17.88;;
73452;SDS011;61687;56.232;43.854;2022-07-23T03:59:16;34.30;;;17.17;;
73452;SDS011;61687;56.232;43.854;2022-07-23T04:01:43;25.23;;;16.55;;
73452;SDS011;61687;56.232;43.854;2022-07-23T04:04:10;25.23;;;16.50;;
73452;SDS011;61687;56.232;43.854;2022-07-23T04:06:39;29.55;;;17.85;;
73452;SDS011;61687;56.232;43.854;2022-07-23T04:09:05;25.35;;;17.35;;
73452;SDS011;61687;56.232;43.854;2022-07-23T04:11:32;24.73;;;16.93;;
73452;SDS011;61687;56.232;43.854;2022-07-23T04:13:58;28.08;;;15.77;;
73452;SDS011;61687;56.232;43.854;2022-07-23T04:16:24;26.48;;;16.80;;
73452;SDS011;61687;56.232;43.854;2022-07-23T04:18:50;31.23;;;16.73;;
73452;SDS011;61687;56.232;43.854;2022-07-23T04:21:19;25.27;;;16.70;;
73452;SDS011;61687;56.232;43.854;2022-07-23T04:23:46;30.10;;;17.20;;
73452;SDS011;61687;56.232;43.854;2022-07-23T04:26:13;27.83;;;17.63;;
73452;SDS011;61687;56.232;43.854;2022-07-23T04:28:39;30.70;;;17.95;;
73452;SDS011;61687;56.232;43.854;2022-07-23T04:31:05;29.48;;;17.30;;
73452;SDS011;61687;56.232;43.854;2022-07-23T04:33:33;26.50;;;17.00;;
73452;SDS011;61687;56.232;43.854;2022-07-23T04:36:04;25.63;;;17.40;;
73452;SDS011;61687;56.232;43.854;2022-07-23T04:38:30;31.95;;;17.52;;
73452;SDS011;61687;56.232;43.854;2022-07-23T04:40:59;25.35;;;17.40;;
73452;SDS011;61687;56.232;43.854;2022-07-23T04:43:26;26.45;;;17.33;;
73452;SDS011;61687;56.232;43.854;2022-07-23T04:45:53;25.20;;;16.00;;
73452;SDS011;61687;56.232;43.854;2022-07-23T04:48:19;26.20;;;15.57;;
73452;SDS011;61687;56.232;43.854;2022-07-23T04:50:49;26.55;;;16.48;;
73452;SDS011;61687;56.232;43.854;2022-07-23T04:53:20;23.02;;;15.73;;
73452;SDS011;61687;56.232;43.854;2022-07-23T04:55:47;24.02;;;15.85;;
73452;SDS011;61687;56.232;43.854;2022-07-23T04:58:13;28.93;;;16.97;;
73452;SDS011;61687;56.232;43.854;2022-07-23T05:00:39;25.40;;;16.58;;
73452;SDS011;61687;56.232;43.854;2022-07-23T05:03:05;22.08;;;15.82;;
73452;SDS011;61687;56.232;43.854;2022-07-23T05:05:32;26.05;;;16.38;;
73452;SDS011;61687;56.232;43.854;2022-07-23T05:08:06;23.20;;;16.80;;
73452;SDS011;61687;56.232;43.854;2022-07-23T05:10:32;24.38;;;16.00;;
73452;SDS011;61687;56.232;43.854;2022-07-23T05:12:58;24.58;;;16.80;;
73452;SDS011;61687;56.232;43.854;2022-07-23T05:15:24;28.98;;;16.70;;
73452;SDS011;61687;56.232;43.854;2022-07-23T05:17:50;29.52;;;17.10;;
73452;SDS011;61687;56.232;43.854;2022-07-23T05:20:17;31.60;;;16.90;;
73452;SDS011;61687;56.232;43.854;2022-07-23T05:22:43;27.00;;;16.98;;
73452;SDS011;61687;56.232;43.854;2022-07-23T05:25:09;29.45;;;16.90;;
73452;SDS011;61687;56.232;43.854;2022-07-23T05:27:36;26.10;;;18.13;;
73452;SDS011;61687;56.232;43.854;2022-07-23T05:30:02;28.77;;;17.53;;
73452;SDS011;61687;56.232;43.854;2022-07-23T05:32:31;31.08;;;18.70;;
73452;SDS011;61687;56.232;43.854;2022-07-23T05:35:06;26.52;;;17.48;;
73452;SDS011;61687;56.232;43.854;2022-07-23T05:37:35;29.98;;;17.65;;
73452;SDS011;61687;56.232;43.854;2022-07-23T05:40:05;29.93;;;17.00;;
73452;SDS011;61687;56.232;43.854;2022-07-23T05:42:36;25.23;;;17.38;;
73452;SDS011;61687;56.232;43.854;2022-07-23T05:45:04;28.60;;;17.80;;
73452;SDS011;61687;56.232;43.854;2022-07-23T05:47:43;25.95;;;17.05;;
73452;SDS011;61687;56.232;43.854;2022-07-23T05:50:12;29.38;;;17.48;;
73452;SDS011;61687;56.232;43.854;2022-07-23T05:52:50;27.43;;;17.13;;
73452;SDS011;61687;56.232;43.854;2022-07-23T05:55:35;28.33;;;16.80;;
73452;SDS011;61687;56.232;43.854;2022-07-23T05:58:01;27.02;;;17.25;;
73452;SDS011;61687;56.232;43.854;2022-07-23T06:00:27;29.30;;;17.70;;
73452;SDS011;61687;56.232;43.854;2022-07-23T06:02:54;29.33;;;17.08;;
73452;SDS011;61687;56.232;43.854;2022-07-23T06:05:22;29.23;;;18.50;;
73452;SDS011;61687;56.232;43.854;2022-07-23T06:07:49;26.42;;;17.08;;
73452;SDS011;61687;56.232;43.854;2022-07-23T06:10:16;28.35;;;17.88;;
73452;SDS011;61687;56.232;43.854;2022-07-23T06:12:42;25.58;;;17.40;;
73452;SDS011;61687;56.232;43.854;2022-07-23T06:15:08;30.65;;;17.98;;
73452;SDS011;61687;56.232;43.854;2022-07-23T06:17:35;27.23;;;18.97;;
73452;SDS011;61687;56.232;43.854;2022-07-23T06:20:02;30.40;;;18.52;;
73452;SDS011;61687;56.232;43.854;2022-07-23T06:22:28;27.20;;;18.17;;
73452;SDS011;61687;56.232;43.854;2022-07-23T06:24:55;31.17;;;19.20;;
73452;SDS011;61687;56.232;43.854;2022-07-23T06:27:21;27.40;;;17.95;;
73452;SDS011;61687;56.232;43.854;2022-07-23T06:29:47;25.53;;;18.57;;
73452;SDS011;61687;56.232;43.854;2022-07-23T06:32:13;27.52;;;18.02;;
73452;SDS011;61687;56.232;43.854;2022-07-23T06:34:38;26.48;;;18.20;;
73452;SDS011;61687;56.232;43.854;2022-07-23T06:37:04;28.27;;;18.70;;
73452;SDS011;61687;56.232;43.854;2022-07-23T06:39:31;28.60;;;18.55;;
73452;SDS011;61687;56.232;43.854;2022-07-23T06:41:58;26.35;;;17.25;;
73452;SDS011;61687;56.232;43.854;2022-07-23T06:44:35;26.65;;;18.02;;
73452;SDS011;61687;56.232;43.854;2022-07-23T06:47:01;23.63;;;16.80;;
73452;SDS011;61687;56.232;43.854;2022-07-23T06:49:27;28.07;;;17.93;;
73452;SDS011;61687;56.232;43.854;2022-07-23T06:51:56;25.90;;;16.58;;
73452;SDS011;61687;56.232;43.854;2022-07-23T06:54:22;51.13;;;18.10;;
73452;SDS011;61687;56.232;43.854;2022-07-23T06:56:49;26.05;;;16.58;;
73452;SDS011;61687;56.232;43.854;2022-07-23T06:59:15;24.90;;;16.73;;
73452;SDS011;61687;56.232;43.854;2022-07-23T07:01:42;24.00;;;16.88;;
73452;SDS011;61687;56.232;43.854;2022-07-23T07:04:08;28.40;;;18.05;;
73452;SDS011;61687;56.232;43.854;2022-07-23T07:06:34;28.38;;;18.02;;
73452;SDS011;61687;56.232;43.854;2022-07-23T07:09:00;24.23;;;17.52;;
73452;SDS011;61687;56.232;43.854;2022-07-23T07:11:26;24.27;;;16.77;;
73452;SDS011;61687;56.232;43.854;2022-07-23T07:13:52;24.92;;;16.55;;
73452;SDS011;61687;56.232;43.854;2022-07-23T07:16:18;28.40;;;18.83;;
73452;SDS011;61687;56.232;43.854;2022-07-23T07:18:44;26.10;;;17.10;;
73452;SDS011;61687;56.232;43.854;2022-07-23T07:21:10;27.77;;;17.45;;
73452;SDS011;61687;56.232;43.854;2022-07-23T07:23:36;28.43;;;16.83;;
73452;SDS011;61687;56.232;43.854;2022-07-23T07:26:03;25.00;;;16.33;;
73452;SDS011;61687;56.232;43.854;2022-07-23T07:28:28;24.90;;;16.23;;
73452;SDS011;61687;56.232;43.854;2022-07-23T07:30:55;26.38;;;15.80;;
73452;SDS011;61687;56.232;43.854;2022-07-23T07:33:20;26.97;;;15.10;;
73452;SDS011;61687;56.232;43.854;2022-07-23T07:35:47;23.45;;;15.88;;
73452;SDS011;61687;56.232;43.854;2022-07-23T07:38:13;23.48;;;15.60;;
73452;SDS011;61687;56.232;43.854;2022-07-23T07:40:39;22.17;;;15.03;;
73452;SDS011;61687;56.232;43.854;2022-07-23T07:43:05;23.17;;;16.30;;
73452;SDS011;61687;56.232;43.854;2022-07-23T07:45:31;22.13;;;16.40;;
73452;SDS011;61687;56.232;43.854;2022-07-23T07:47:57;23.45;;;15.23;;
73452;SDS011;61687;56.232;43.854;2022-07-23T07:50:23;25.17;;;16.50;;
73452;SDS011;61687;56.232;43.854;2022-07-23T07:52:50;23.50;;;16.10;;
73452;SDS011;61687;56.232;43.854;2022-07-23T07:55:15;21.30;;;16.17;;
73452;SDS011;61687;56.232;43.854;2022-07-23T07:57:41;20.92;;;14.93;;
73452;SDS011;61687;56.232;43.854;2022-07-23T08:00:08;22.70;;;14.95;;
73452;SDS011;61687;56.232;43.854;2022-07-23T08:05:08;23.10;;;15.47;;
73452;SDS011;61687;56.232;43.854;2022-07-23T08:07:35;20.77;;;15.20;;
73452;SDS011;61687;56.232;43.854;2022-07-23T08:10:02;25.02;;;15.20;;
73452;SDS011;61687;56.232;43.854;2022-07-23T08:12:37;26.52;;;15.35;;
73452;SDS011;61687;56.232;43.854;2022-07-23T08:15:07;21.08;;;13.52;;
73452;SDS011;61687;56.232;43.854;2022-07-23T08:17:34;17.53;;;13.07;;
73452;SDS011;61687;56.232;43.854;2022-07-23T08:20:00;21.02;;;14.63;;
73452;SDS011;61687;56.232;43.854;2022-07-23T08:22:40;23.92;;;14.52;;
73452;SDS011;61687;56.232;43.854;2022-07-23T08:25:07;21.58;;;13.88;;
73452;SDS011;61687;56.232;43.854;2022-07-23T08:27:33;23.90;;;15.48;;
73452;SDS011;61687;56.232;43.854;2022-07-23T08:29:59;20.97;;;13.27;;
73452;SDS011;61687;56.232;43.854;2022-07-23T08:32:25;17.95;;;12.63;;
73452;SDS011;61687;56.232;43.854;2022-07-23T08:34:51;17.20;;;11.77;;
73452;SDS011;61687;56.232;43.854;2022-07-23T08:37:17;21.67;;;12.73;;
73452;SDS011;61687;56.232;43.854;2022-07-23T08:39:42;17.65;;;12.85;;
73452;SDS011;61687;56.232;43.854;2022-07-23T08:42:08;18.67;;;12.90;;
73452;SDS011;61687;56.232;43.854;2022-07-23T08:44:35;17.33;;;13.10;;
73452;SDS011;61687;56.232;43.854;2022-07-23T08:47:03;17.00;;;12.38;;
73452;SDS011;61687;56.232;43.854;2022-07-23T08:49:29;18.88;;;13.75;;
73452;SDS011;61687;56.232;43.854;2022-07-23T08:51:55;20.27;;;13.90;;
73452;SDS011;61687;56.232;43.854;2022-07-23T08:54:21;21.57;;;13.63;;
73452;SDS011;61687;56.232;43.854;2022-07-23T08:56:48;18.25;;;14.25;;
73452;SDS011;61687;56.232;43.854;2022-07-23T08:59:14;17.83;;;14.02;;
73452;SDS011;61687;56.232;43.854;2022-07-23T09:01:40;18.85;;;13.77;;
73452;SDS011;61687;56.232;43.854;2022-07-23T09:04:06;20.33;;;14.57;;
73452;SDS011;61687;56.232;43.854;2022-07-23T09:06:32;19.13;;;14.05;;
73452;SDS011;61687;56.232;43.854;2022-07-23T09:08:57;21.70;;;14.45;;
73452;SDS011;61687;56.232;43.854;2022-07-23T09:11:41;21.73;;;13.00;;
73452;SDS011;61687;56.232;43.854;2022-07-23T09:14:12;22.15;;;14.02;;
73452;SDS011;61687;56.232;43.854;2022-07-23T09:16:38;19.05;;;13.98;;
73452;SDS011;61687;56.232;43.854;2022-07-23T09:19:04;23.30;;;14.10;;
73452;SDS011;61687;56.232;43.854;2022-07-23T09:21:33;23.67;;;13.50;;
73452;SDS011;61687;56.232;43.854;2022-07-23T09:29:18;19.42;;;14.02;;
73452;SDS011;61687;56.232;43.854;2022-07-23T09:31:51;17.90;;;13.32;;
73452;SDS011;61687;56.232;43.854;2022-07-23T09:34:38;17.40;;;12.80;;
73452;SDS011;61687;56.232;43.854;2022-07-23T09:37:14;17.05;;;13.00;;
73452;SDS011;61687;56.232;43.854;2022-07-23T09:39:42;21.40;;;13.45;;
73452;SDS011;61687;56.232;43.854;2022-07-23T09:44:45;19.13;;;14.63;;
73452;SDS011;61687;56.232;43.854;2022-07-23T09:47:12;20.48;;;13.52;;
73452;SDS011;61687;56.232;43.854;2022-07-23T09:49:39;21.13;;;15.02;;
73452;SDS011;61687;56.232;43.854;2022-07-23T09:52:05;17.50;;;13.00;;
73452;SDS011;61687;56.232;43.854;2022-07-23T09:54:35;17.88;;;12.63;;
73452;SDS011;61687;56.232;43.854;2022-07-23T09:57:07;17.57;;;13.30;;
73452;SDS011;61687;56.232;43.854;2022-07-23T09:59:42;18.33;;;13.40;;
73452;SDS011;61687;56.232;43.854;2022-07-23T10:02:11;19.00;;;14.10;;
73452;SDS011;61687;56.232;43.854;2022-07-23T10:04:54;22.15;;;13.73;;
73452;SDS011;61687;56.232;43.854;2022-07-23T10:07:32;19.05;;;13.27;;
73452;SDS011;61687;56.232;43.854;2022-07-23T10:10:21;18.73;;;12.80;;
73452;SDS011;61687;56.232;43.854;2022-07-23T10:13:08;18.60;;;13.30;;
73452;SDS011;61687;56.232;43.854;2022-07-23T10:15:53;18.70;;;13.27;;
73452;SDS011;61687;56.232;43.854;2022-07-23T10:18:19;18.20;;;12.45;;
73452;SDS011;61687;56.232;43.854;2022-07-23T10:20:47;17.35;;;12.55;;
73452;SDS011;61687;56.232;43.854;2022-07-23T10:23:17;18.03;;;12.90;;
73452;SDS011;61687;56.232;43.854;2022-07-23T10:39:30;19.58;;;13.52;;
73452;SDS011;61687;56.232;43.854;2022-07-23T10:42:07;18.35;;;13.50;;
73452;SDS011;61687;56.232;43.854;2022-07-23T10:44:38;18.15;;;12.82;;
73452;SDS011;61687;56.232;43.854;2022-07-23T10:47:08;21.10;;;13.60;;
73452;SDS011;61687;56.232;43.854;2022-07-23T10:49:47;17.27;;;13.47;;
73452;SDS011;61687;56.232;43.854;2022-07-23T10:52:23;17.00;;;13.20;;
73452;SDS011;61687;56.232;43.854;2022-07-23T10:54:51;17.23;;;13.75;;
73452;SDS011;61687;56.232;43.854;2022-07-23T10:57:25;21.95;;;14.40;;
73452;SDS011;61687;56.232;43.854;2022-07-23T11:02:44;19.58;;;13.70;;
73452;SDS011;61687;56.232;43.854;2022-07-23T11:05:13;18.75;;;13.70;;
73452;SDS011;61687;56.232;43.854;2022-07-23T11:34:49;21.35;;;14.55;;
73452;SDS011;61687;56.232;43.854;2022-07-23T11:40:15;19.87;;;14.30;;
73452;SDS011;61687;56.232;43.854;2022-07-23T11:42:59;18.33;;;13.77;;
73452;SDS011;61687;56.232;43.854;2022-07-23T11:45:39;19.38;;;13.95;;
73452;SDS011;61687;56.232;43.854;2022-07-23T11:48:08;19.00;;;14.27;;
73452;SDS011;61687;56.232;43.854;2022-07-23T11:50:40;21.08;;;15.75;;
73452;SDS011;61687;56.232;43.854;2022-07-23T11:53:06;22.10;;;15.83;;
73452;SDS011;61687;56.232;43.854;2022-07-23T11:55:32;24.30;;;16.95;;
73452;SDS011;61687;56.232;43.854;2022-07-23T11:57:58;25.83;;;16.48;;
73452;SDS011;61687;56.232;43.854;2022-07-23T12:00:25;54.17;;;36.67;;
73452;SDS011;61687;56.232;43.854;2022-07-23T12:02:57;29.52;;;20.70;;
73452;SDS011;61687;56.232;43.854;2022-07-23T12:05:30;27.90;;;17.37;;
73452;SDS011;61687;56.232;43.854;2022-07-23T12:07:58;27.42;;;17.17;;
73452;SDS011;61687;56.232;43.854;2022-07-23T12:10:27;29.00;;;18.25;;
73452;SDS011;61687;56.232;43.854;2022-07-23T12:15:26;26.48;;;18.00;;
73452;SDS011;61687;56.232;43.854;2022-07-23T12:17:57;26.97;;;17.83;;
73452;SDS011;61687;56.232;43.854;2022-07-23T12:20:25;28.23;;;16.95;;
73452;SDS011;61687;56.232;43.854;2022-07-23T12:22:54;24.75;;;17.35;;
73452;SDS011;61687;56.232;43.854;2022-07-23T12:25:24;24.02;;;17.33;;
73452;SDS011;61687;56.232;43.854;2022-07-23T12:28:08;27.25;;;17.38;;
73452;SDS011;61687;56.232;43.854;2022-07-23T12:33:21;22.70;;;16.67;;
73452;SDS011;61687;56.232;43.854;2022-07-23T12:35:49;22.70;;;15.55;;
73452;SDS011;61687;56.232;43.854;2022-07-23T12:38:19;22.83;;;15.75;;
73452;SDS011;61687;56.232;43.854;2022-07-23T12:40:48;19.80;;;15.98;;
73452;SDS011;61687;56.232;43.854;2022-07-23T12:48:31;21.17;;;15.93;;
73452;SDS011;61687;56.232;43.854;2022-07-23T12:51:06;18.67;;;14.18;;
73452;SDS011;61687;56.232;43.854;2022-07-23T12:53:38;20.10;;;14.27;;
73452;SDS011;61687;56.232;43.854;2022-07-23T12:56:07;18.83;;;14.50;;
73452;SDS011;61687;56.232;43.854;2022-07-23T12:58:45;19.48;;;14.43;;
73452;SDS011;61687;56.232;43.854;2022-07-23T13:03:58;21.85;;;14.73;;
73452;SDS011;61687;56.232;43.854;2022-07-23T13:06:36;20.63;;;15.60;;
73452;SDS011;61687;56.232;43.854;2022-07-23T13:09:05;21.43;;;13.40;;
73452;SDS011;61687;56.232;43.854;2022-07-23T13:11:32;23.88;;;13.43;;
73452;SDS011;61687;56.232;43.854;2022-07-23T13:13:59;20.60;;;12.35;;
73452;SDS011;61687;56.232;43.854;2022-07-23T13:16:29;19.80;;;12.60;;
73452;SDS011;61687;56.232;43.854;2022-07-23T13:18:56;28.15;;;12.98;;
73452;SDS011;61687;56.232;43.854;2022-07-23T13:21:22;20.20;;;12.57;;
73452;SDS011;61687;56.232;43.854;2022-07-23T13:23:49;19.83;;;12.52;;
73452;SDS011;61687;56.232;43.854;2022-07-23T13:26:15;18.98;;;12.85;;
73452;SDS011;61687;56.232;43.854;2022-07-23T13:28:41;19.45;;;12.55;;
73452;SDS011;61687;56.232;43.854;2022-07-23T13:31:07;22.75;;;13.43;;
73452;SDS011;61687;56.232;43.854;2022-07-23T13:33:33;22.10;;;12.43;;
73452;SDS011;61687;56.232;43.854;2022-07-23T13:36:00;24.52;;;13.30;;
73452;SDS011;61687;56.232;43.854;2022-07-23T13:38:26;23.25;;;13.68;;
73452;SDS011;61687;56.232;43.854;2022-07-23T13:40:53;21.13;;;13.15;;
73452;SDS011;61687;56.232;43.854;2022-07-23T13:43:20;23.73;;;13.35;;
73452;SDS011;61687;56.232;43.854;2022-07-23T13:45:48;22.47;;;13.87;;
73452;SDS011;61687;56.232;43.854;2022-07-23T13:48:15;25.15;;;14.75;;
73452;SDS011;61687;56.232;43.854;2022-07-23T13:50:42;23.27;;;14.40;;
73452;SDS011;61687;56.232;43.854;2022-07-23T13:53:10;29.88;;;14.82;;
73452;SDS011;61687;56.232;43.854;2022-07-23T13:55:38;18.27;;;13.30;;
73452;SDS011;61687;56.232;43.854;2022-07-23T13:58:04;19.03;;;12.73;;
73452;SDS011;61687;56.232;43.854;2022-07-23T14:00:31;16.88;;;13.00;;
73452;SDS011;61687;56.232;43.854;2022-07-23T14:02:59;17.60;;;12.15;;
73452;SDS011;61687;56.232;43.854;2022-07-23T14:05:25;19.02;;;12.18;;
73452;SDS011;61687;56.232;43.854;2022-07-23T14:07:51;19.60;;;12.23;;
73452;SDS011;61687;56.232;43.854;2022-07-23T14:10:18;21.60;;;11.97;;
73452;SDS011;61687;56.232;43.854;2022-07-23T14:12:46;17.17;;;10.90;;
73452;SDS011;61687;56.232;43.854;2022-07-23T14:15:13;16.88;;;11.98;;
73452;SDS011;61687;56.232;43.854;2022-07-23T14:17:40;15.45;;;11.18;;
73452;SDS011;61687;56.232;43.854;2022-07-23T14:20:08;29.08;;;11.88;;
73452;SDS011;61687;56.232;43.854;2022-07-23T14:22:35;18.90;;;11.23;;
73452;SDS011;61687;56.232;43.854;2022-07-23T14:25:02;16.83;;;10.68;;
73452;SDS011;61687;56.232;43.854;2022-07-23T14:27:29;18.65;;;10.88;;
73452;SDS011;61687;56.232;43.854;2022-07-23T14:29:55;14.88;;;10.80;;
73452;SDS011;61687;56.232;43.854;2022-07-23T14:32:22;13.98;;;10.95;;
73452;SDS011;61687;56.232;43.854;2022-07-23T14:34:48;15.20;;;11.10;;
73452;SDS011;61687;56.232;43.854;2022-07-23T14:37:15;17.15;;;12.07;;
73452;SDS011;61687;56.232;43.854;2022-07-23T14:39:42;17.85;;;12.10;;
73452;SDS011;61687;56.232;43.854;2022-07-23T14:42:09;17.77;;;13.30;;
73452;SDS011;61687;56.232;43.854;2022-07-23T14:44:36;17.23;;;12.75;;
73452;SDS011;61687;56.232;43.854;2022-07-23T14:47:03;17.27;;;12.97;;
73452;SDS011;61687;56.232;43.854;2022-07-23T14:49:30;18.00;;;12.95;;
73452;SDS011;61687;56.232;43.854;2022-07-23T14:51:57;23.10;;;15.77;;
73452;SDS011;61687;56.232;43.854;2022-07-23T14:54:24;19.13;;;13.57;;
73452;SDS011;61687;56.232;43.854;2022-07-23T14:56:55;17.88;;;13.35;;
73452;SDS011;61687;56.232;43.854;2022-07-23T14:59:22;17.50;;;13.40;;
73452;SDS011;61687;56.232;43.854;2022-07-23T15:01:49;19.00;;;13.27;;
73452;SDS011;61687;56.232;43.854;2022-07-23T15:04:15;20.30;;;13.60;;
73452;SDS011;61687;56.232;43.854;2022-07-23T15:06:41;19.70;;;13.80;;
73452;SDS011;61687;56.232;43.854;2022-07-23T15:09:07;21.60;;;14.60;;
73452;SDS011;61687;56.232;43.854;2022-07-23T15:11:34;19.60;;;13.40;;
73452;SDS011;61687;56.232;43.854;2022-07-23T15:14:02;19.42;;;14.23;;
73452;SDS011;61687;56.232;43.854;2022-07-23T15:16:28;21.52;;;14.52;;
73452;SDS011;61687;56.232;43.854;2022-07-23T15:18:55;22.15;;;13.95;;
73452;SDS011;61687;56.232;43.854;2022-07-23T15:21:21;20.65;;;13.95;;
73452;SDS011;61687;56.232;43.854;2022-07-23T15:23:47;21.83;;;14.30;;